createdAt,value
2023-03-27T00:01:27.811Z,101498.25
2023-03-27T00:03:56.201Z,101494.69
2023-03-27T00:06:25.132Z,101499.00
2023-03-27T00:08:53.284Z,101509.00
2023-03-27T00:11:22.050Z,101504.16
2023-03-27T00:13:54.459Z,101500.34
2023-03-27T00:16:25.368Z,101508.25
2023-03-27T00:18:53.406Z,101518.91
2023-03-27T00:21:22.495Z,101523.00
2023-03-27T00:23:49.752Z,101518.72
2023-03-27T00:26:16.784Z,101525.75
2023-03-27T00:28:44.146Z,101529.25
2023-03-27T00:31:14.022Z,101532.75
2023-03-27T00:33:41.997Z,101540.59
2023-03-27T00:36:10.542Z,101537.53
2023-03-27T00:38:39.600Z,101540.16
2023-03-27T00:41:08.326Z,101541.88
2023-03-27T00:43:41.111Z,101549.88
2023-03-27T00:46:42.179Z,101550.44
2023-03-27T00:49:13.588Z,101549.97
2023-03-27T00:51:43.500Z,101556.91
2023-03-27T00:54:12.684Z,101566.50
2023-03-27T00:56:39.835Z,101558.53
2023-03-27T00:59:12.547Z,101553.59
2023-03-27T01:01:40.560Z,101554.44
2023-03-27T01:04:09.158Z,101568.00
2023-03-27T01:06:37.893Z,101570.41
2023-03-27T01:09:05.097Z,101577.47
2023-03-27T01:11:50.443Z,101570.16
2023-03-27T01:15:20.537Z,101583.72
2023-03-27T01:18:02.172Z,101587.00
2023-03-27T01:21:06.562Z,101587.59
2023-03-27T01:24:17.975Z,101597.44
2023-03-27T01:27:16.310Z,101607.97
2023-03-27T01:30:52.153Z,101612.25
2023-03-27T01:33:31.113Z,101613.63
2023-03-27T01:36:22.060Z,101609.81
2023-03-27T01:39:11.224Z,101608.16
2023-03-27T01:41:45.877Z,101613.50
2023-03-27T01:44:43.182Z,101625.56
2023-03-27T01:47:39.773Z,101623.03
2023-03-27T01:50:29.902Z,101637.50
2023-03-27T01:53:14.772Z,101632.28
2023-03-27T01:55:50.492Z,101631.03
2023-03-27T01:58:23.322Z,101623.00
2023-03-27T02:00:56.510Z,101624.75
2023-03-27T02:03:55.988Z,101626.53
2023-03-27T02:06:35.648Z,101635.56
2023-03-27T02:09:16.446Z,101636.22
2023-03-27T02:11:58.716Z,101642.41
2023-03-27T02:14:37.157Z,101649.72
2023-03-27T02:17:11.644Z,101658.13
2023-03-27T02:19:51.059Z,101656.47
2023-03-27T02:22:18.602Z,101654.09
2023-03-27T02:24:46.387Z,101654.03
2023-03-27T02:27:31.487Z,101661.78
2023-03-27T02:30:11.200Z,101664.22
2023-03-27T02:32:46.863Z,101664.44
2023-03-27T02:36:07.868Z,101669.44
2023-03-27T02:38:45.192Z,101681.56
2023-03-27T02:41:30.314Z,101677.25
2023-03-27T02:44:23.685Z,101693.78
2023-03-27T02:47:11.715Z,101700.22
2023-03-27T02:49:46.252Z,101691.56
2023-03-27T02:52:35.416Z,101697.22
2023-03-27T02:55:11.180Z,101699.09
2023-03-27T02:57:39.267Z,101698.66
2023-03-27T03:00:14.313Z,101708.25
2023-03-27T03:02:41.800Z,101707.22
2023-03-27T03:05:21.085Z,101713.41
2023-03-27T03:07:49.308Z,101733.09
2023-03-27T03:10:17.266Z,101739.13
2023-03-27T03:12:44.245Z,101737.00
2023-03-27T03:15:11.740Z,101743.69
2023-03-27T03:17:38.804Z,101739.53
2023-03-27T03:20:07.838Z,101758.94
2023-03-27T03:22:34.857Z,101761.31
2023-03-27T03:25:02.241Z,101760.53
2023-03-27T03:27:29.224Z,101748.78
2023-03-27T03:29:56.908Z,101752.78
2023-03-27T03:32:23.946Z,101757.00
2023-03-27T03:34:51.006Z,101752.22
2023-03-27T03:37:18.207Z,101758.41
2023-03-27T03:39:45.468Z,101764.19
2023-03-27T03:42:22.912Z,101765.78
2023-03-27T03:44:51.381Z,101775.97
2023-03-27T03:47:18.317Z,101769.78
2023-03-27T03:49:45.418Z,101779.31
2023-03-27T03:52:12.685Z,101789.72
2023-03-27T03:54:40.433Z,101782.56
2023-03-27T03:57:08.754Z,101782.31
2023-03-27T03:59:36.100Z,101785.34
2023-03-27T04:02:03.397Z,101789.31
2023-03-27T04:04:32.098Z,101798.09
2023-03-27T04:06:59.233Z,101792.66
2023-03-27T04:09:26.335Z,101794.53
2023-03-27T04:11:53.343Z,101804.69
2023-03-27T04:14:20.556Z,101796.22
2023-03-27T04:16:47.538Z,101805.03
2023-03-27T04:19:14.482Z,101809.50
2023-03-27T04:21:42.421Z,101817.88
2023-03-27T04:24:09.505Z,101819.75
2023-03-27T04:26:36.451Z,101833.50
2023-03-27T04:29:04.099Z,101830.41
2023-03-27T04:31:34.643Z,101837.75
2023-03-27T04:34:03.267Z,101846.47
2023-03-27T04:36:31.253Z,101851.50
2023-03-27T04:38:58.437Z,101862.91
2023-03-27T04:41:29.852Z,101861.44
2023-03-27T04:43:56.957Z,101876.56
2023-03-27T04:46:24.015Z,101880.22
2023-03-27T04:48:50.972Z,101897.38
2023-03-27T04:51:18.024Z,101886.53
2023-03-27T04:53:44.955Z,101894.34
2023-03-27T04:56:11.956Z,101892.81
2023-03-27T04:58:41.084Z,101889.06
2023-03-27T05:01:08.056Z,101888.97
2023-03-27T05:03:35.359Z,101882.41
2023-03-27T05:06:04.683Z,101888.31
2023-03-27T05:08:32.667Z,101886.41
2023-03-27T05:11:00.040Z,101891.91
2023-03-27T05:13:28.538Z,101888.41
2023-03-27T05:15:55.553Z,101904.41
2023-03-27T05:18:22.497Z,101905.13
2023-03-27T05:20:50.159Z,101908.91
2023-03-27T05:23:17.352Z,101902.63
2023-03-27T05:25:45.460Z,101923.44
2023-03-27T05:28:27.613Z,101918.50
2023-03-27T05:30:55.277Z,101920.75
2023-03-27T05:33:22.451Z,101926.84
2023-03-27T05:35:52.949Z,101926.47
2023-03-27T05:38:20.343Z,101934.53
2023-03-27T05:40:47.284Z,101940.63
2023-03-27T05:43:14.245Z,101945.06
2023-03-27T05:45:41.373Z,101954.47
2023-03-27T05:48:09.308Z,101938.78
2023-03-27T05:50:37.346Z,101945.22
2023-03-27T05:53:12.807Z,101938.41
2023-03-27T05:55:39.845Z,101922.19
2023-03-27T05:58:09.739Z,101920.19
2023-03-27T06:00:38.698Z,101918.78
2023-03-27T06:03:07.032Z,101931.81
2023-03-27T06:05:34.531Z,101930.88
2023-03-27T06:08:02.207Z,101934.84
2023-03-27T06:10:30.771Z,101942.00
2023-03-27T06:13:08.734Z,101937.03
2023-03-27T06:15:40.083Z,101941.38
2023-03-27T06:18:08.348Z,101952.25
2023-03-27T06:20:37.379Z,101946.25
2023-03-27T06:23:06.429Z,101951.53
2023-03-27T06:25:35.670Z,101963.06
2023-03-27T06:28:08.093Z,101962.25
2023-03-27T06:30:37.810Z,101976.47
2023-03-27T06:33:05.648Z,101973.00
2023-03-27T06:35:34.501Z,101976.63
2023-03-27T06:38:04.699Z,101986.34
2023-03-27T06:40:35.246Z,101989.03
2023-03-27T06:43:08.759Z,101984.72
2023-03-27T06:45:42.836Z,101980.44
2023-03-27T06:48:16.248Z,101979.63
2023-03-27T06:50:48.599Z,101985.84
2023-03-27T06:55:49.205Z,101984.22
2023-03-27T06:58:18.699Z,101977.25
2023-03-27T07:00:46.868Z,101988.81
2023-03-27T07:03:15.148Z,101991.59
2023-03-27T07:05:42.929Z,102001.31
2023-03-27T07:10:56.309Z,102003.78
2023-03-27T07:13:35.017Z,102005.72
2023-03-27T07:16:02.127Z,101993.53
2023-03-27T07:18:29.173Z,101999.75
2023-03-27T07:20:56.316Z,102014.81
2023-03-27T07:23:23.424Z,102009.09
2023-03-27T07:25:51.701Z,102008.31
2023-03-27T07:28:19.455Z,102010.00
2023-03-27T07:30:46.827Z,102012.41
2023-03-27T07:33:14.294Z,102024.88
2023-03-27T07:35:46.832Z,102033.78
2023-03-27T07:38:14.785Z,102032.75
2023-03-27T07:40:44.541Z,102053.81
2023-03-27T07:43:12.343Z,102052.38
2023-03-27T07:45:40.076Z,102054.34
2023-03-27T07:48:09.955Z,102053.56
2023-03-27T07:50:38.055Z,102053.72
2023-03-27T07:53:08.626Z,102047.59
2023-03-27T07:55:37.933Z,102050.28
2023-03-27T07:58:07.006Z,102053.84
2023-03-27T08:00:38.844Z,102060.03
2023-03-27T08:03:11.748Z,102056.13
2023-03-27T08:05:38.812Z,102054.16
2023-03-27T08:08:06.024Z,102069.44
2023-03-27T08:10:33.215Z,102066.16
2023-03-27T08:13:00.910Z,102063.19
2023-03-27T08:15:27.870Z,102067.94
2023-03-27T08:17:56.843Z,102049.94
2023-03-27T08:20:24.330Z,102055.28
2023-03-27T08:22:52.748Z,102055.47
2023-03-27T08:25:22.740Z,102062.25
2023-03-27T08:27:50.690Z,102059.56
2023-03-27T08:30:19.036Z,102072.78
2023-03-27T08:32:46.552Z,102075.19
2023-03-27T08:35:13.720Z,102066.97
2023-03-27T08:37:41.617Z,102068.91
2023-03-27T08:40:21.310Z,102067.81
2023-03-27T08:42:53.953Z,102073.22
2023-03-27T08:45:24.370Z,102075.03
2023-03-27T08:48:00.745Z,102082.44
2023-03-27T08:50:46.224Z,102083.19
2023-03-27T08:53:34.237Z,102094.41
2023-03-27T08:56:03.088Z,102082.34
2023-03-27T08:58:30.646Z,102099.06
2023-03-27T09:01:04.719Z,102093.63
2023-03-27T09:03:56.252Z,102114.84
2023-03-27T09:06:28.268Z,102109.47
2023-03-27T09:09:09.579Z,102112.09
2023-03-27T09:11:53.694Z,102105.09
2023-03-27T09:14:39.294Z,102106.94
2023-03-27T09:17:38.211Z,102108.47
2023-03-27T09:20:20.440Z,102113.06
2023-03-27T09:23:21.081Z,102120.31
2023-03-27T09:25:56.019Z,102117.72
2023-03-27T09:28:39.277Z,102121.50
2023-03-27T09:31:27.822Z,102117.78
2023-03-27T09:33:58.034Z,102126.56
2023-03-27T09:36:25.003Z,102141.88
2023-03-27T09:39:04.044Z,102151.44
2023-03-27T09:41:49.057Z,102138.88
2023-03-27T09:44:25.563Z,102135.50
2023-03-27T09:47:14.320Z,102126.41
2023-03-27T09:49:56.627Z,102133.44
2023-03-27T09:52:43.956Z,102130.97
2023-03-27T09:55:30.155Z,102131.66
2023-03-27T09:58:29.935Z,102138.97
2023-03-27T10:01:20.454Z,102133.31
2023-03-27T10:03:53.777Z,102136.03
2023-03-27T10:06:39.196Z,102134.13
2023-03-27T10:09:30.974Z,102143.44
2023-03-27T10:12:07.482Z,102141.25
2023-03-27T10:14:42.298Z,102143.38
2023-03-27T10:17:32.229Z,102172.31
2023-03-27T10:20:13.194Z,102172.88
2023-03-27T10:23:08.107Z,102183.69
2023-03-27T10:25:49.116Z,102178.44
2023-03-27T10:28:40.842Z,102182.84
2023-03-27T10:31:34.944Z,102181.88
2023-03-27T10:34:05.981Z,102181.38
2023-03-27T10:36:40.548Z,102175.91
2023-03-27T10:39:13.825Z,102188.59
2023-03-27T10:41:41.321Z,102189.16
2023-03-27T10:44:19.209Z,102185.31
2023-03-27T10:46:46.763Z,102180.88
2023-03-27T10:49:55.342Z,102195.25
2023-03-27T10:52:26.004Z,102184.41
2023-03-27T10:55:14.055Z,102185.47
2023-03-27T10:57:45.962Z,102180.56
2023-03-27T11:00:20.683Z,102186.47
2023-03-27T11:03:13.009Z,102197.22
2023-03-27T11:05:47.239Z,102190.50
2023-03-27T11:08:28.124Z,102198.94
2023-03-27T11:11:01.252Z,102193.56
2023-03-27T11:13:38.226Z,102197.94
2023-03-27T11:16:28.574Z,102201.84
2023-03-27T11:19:03.245Z,102200.81
2023-03-27T11:21:49.674Z,102214.09
2023-03-27T11:24:30.548Z,102209.69
2023-03-27T11:27:15.357Z,102214.31
2023-03-27T11:30:08.373Z,102211.88
2023-03-27T11:32:59.937Z,102213.66
2023-03-27T11:35:33.721Z,102215.75
2023-03-27T11:38:17.339Z,102213.53
2023-03-27T11:40:49.471Z,102211.53
2023-03-27T11:43:19.910Z,102252.31
2023-03-27T11:46:09.737Z,102234.31
2023-03-27T11:49:01.566Z,102235.59
2023-03-27T11:52:29.236Z,102237.88
2023-03-27T11:55:56.459Z,102234.78
2023-03-27T11:58:45.909Z,102229.50
2023-03-27T12:01:40.027Z,102235.41
2023-03-27T12:04:13.044Z,102237.03
2023-03-27T12:07:08.233Z,102230.84
2023-03-27T12:09:46.089Z,102262.94
2023-03-27T12:12:36.014Z,102239.03
2023-03-27T12:15:29.360Z,102240.09
2023-03-27T12:18:45.262Z,102243.28
2023-03-27T12:21:41.422Z,102258.75
2023-03-27T12:24:46.923Z,102256.88
2023-03-27T12:27:57.883Z,102247.47
2023-03-27T12:30:52.801Z,102259.06
2023-03-27T12:33:41.928Z,102253.28
2023-03-27T12:36:16.901Z,102257.94
2023-03-27T12:38:44.629Z,102249.59
2023-03-27T12:41:30.556Z,102249.28
2023-03-27T12:44:01.182Z,102230.97
2023-03-27T12:46:36.743Z,102262.84
2023-03-27T12:49:06.578Z,102269.41
2023-03-27T12:51:44.011Z,102284.13
2023-03-27T12:54:20.103Z,102277.53
2023-03-27T12:57:05.901Z,102278.91
2023-03-27T13:00:07.991Z,102278.13
2023-03-27T13:02:50.069Z,102286.19
2023-03-27T13:05:43.895Z,102286.78
2023-03-27T13:08:34.318Z,102289.09
2023-03-27T13:11:50.015Z,102284.22
2023-03-27T13:15:08.611Z,102296.19
2023-03-27T13:18:39.357Z,102283.09
2023-03-27T13:21:36.685Z,102280.59
2023-03-27T13:24:28.292Z,102280.59
2023-03-27T13:27:15.556Z,102270.53
2023-03-27T13:29:48.091Z,102267.59
2023-03-27T13:32:41.260Z,102276.84
2023-03-27T13:35:22.712Z,102264.53
2023-03-27T13:37:49.623Z,102279.50
2023-03-27T13:40:31.148Z,102275.16
2023-03-27T13:43:14.312Z,102295.63
2023-03-27T13:45:57.622Z,102287.41
2023-03-27T13:49:21.111Z,102278.19
2023-03-27T13:52:00.485Z,102287.59
2023-03-27T13:54:55.476Z,102279.56
2023-03-27T13:57:46.347Z,102278.28
2023-03-27T14:00:35.030Z,102288.69
2023-03-27T14:04:08.514Z,102282.56
2023-03-27T14:07:32.092Z,102287.25
2023-03-27T14:10:29.126Z,102289.31
2023-03-27T14:13:28.785Z,102296.75
2023-03-27T14:16:25.526Z,102288.25
2023-03-27T14:19:44.913Z,102290.03
2023-03-27T14:23:03.868Z,102285.63
2023-03-27T14:25:38.393Z,102303.13
2023-03-27T14:28:10.308Z,102310.03
2023-03-27T14:30:49.353Z,102313.53
2023-03-27T14:33:20.361Z,102321.00
2023-03-27T14:36:02.293Z,102318.91
2023-03-27T14:38:33.348Z,102318.75
2023-03-27T14:41:07.152Z,102317.00
2023-03-27T14:43:34.211Z,102320.88
2023-03-27T14:46:06.617Z,102330.88
2023-03-27T14:48:44.976Z,102325.59
2023-03-27T14:51:27.170Z,102325.94
2023-03-27T14:54:02.296Z,102320.03
2023-03-27T14:56:37.802Z,102320.50
2023-03-27T14:59:20.235Z,102325.03
2023-03-27T15:01:50.231Z,102335.06
2023-03-27T15:04:18.510Z,102335.84
2023-03-27T15:06:45.626Z,102339.81
2023-03-27T15:09:23.340Z,102333.94
2023-03-27T15:11:56.101Z,102330.41
2023-03-27T15:14:30.378Z,102332.25
2023-03-27T15:17:01.778Z,102344.34
2023-03-27T15:19:48.898Z,102348.78
2023-03-27T15:22:29.793Z,102347.50
2023-03-27T15:25:07.001Z,102353.25
2023-03-27T15:27:42.558Z,102341.47
2023-03-27T15:30:33.294Z,102351.41
2023-03-27T15:33:04.513Z,102351.56
2023-03-27T15:35:45.846Z,102363.69
2023-03-27T15:38:17.208Z,102357.41
2023-03-27T15:40:58.384Z,102356.44
2023-03-27T15:43:28.741Z,102357.91
2023-03-27T15:46:17.823Z,102366.13
2023-03-27T15:48:50.855Z,102366.94
2023-03-27T15:51:20.474Z,102363.66
2023-03-27T15:53:53.545Z,102366.88
2023-03-27T15:56:36.013Z,102378.69
2023-03-27T15:59:06.937Z,102373.03
2023-03-27T16:01:41.562Z,102374.81
2023-03-27T16:04:21.608Z,102365.44
2023-03-27T16:06:53.273Z,102373.28
2023-03-27T16:09:34.363Z,102368.66
2023-03-27T16:12:01.432Z,102375.78
2023-03-27T16:14:41.226Z,102381.50
2023-03-27T16:17:20.549Z,102386.06
2023-03-27T16:19:58.285Z,102388.41
2023-03-27T16:22:37.491Z,102392.78
2023-03-27T16:25:09.059Z,102392.53
2023-03-27T16:27:54.888Z,102400.84
2023-03-27T16:30:39.029Z,102399.09
2023-03-27T16:33:27.437Z,102395.81
2023-03-27T16:35:56.593Z,102399.69
2023-03-27T16:38:23.962Z,102399.25
2023-03-27T16:40:50.988Z,102411.22
2023-03-27T16:43:17.959Z,102403.13
2023-03-27T16:45:46.762Z,102408.81
2023-03-27T16:48:13.799Z,102411.50
2023-03-27T16:50:41.328Z,102409.44
2023-03-27T16:53:08.410Z,102405.09
2023-03-27T16:55:35.619Z,102424.38
2023-03-27T16:58:03.510Z,102418.50
2023-03-27T17:00:30.943Z,102417.28
2023-03-27T17:02:58.019Z,102421.56
2023-03-27T17:05:25.190Z,102421.91
2023-03-27T17:07:52.441Z,102418.34
2023-03-27T17:10:19.590Z,102418.97
2023-03-27T17:12:46.715Z,102431.84
2023-03-27T17:15:15.840Z,102434.03
2023-03-27T17:17:42.927Z,102430.34
2023-03-27T17:20:10.624Z,102431.16
2023-03-27T17:22:37.647Z,102430.97
2023-03-27T17:25:06.197Z,102427.88
2023-03-27T17:27:33.950Z,102425.94
2023-03-27T17:30:01.258Z,102447.38
2023-03-27T17:32:28.362Z,102442.03
2023-03-27T17:34:55.963Z,102452.44
2023-03-27T17:37:24.022Z,102455.75
2023-03-27T17:39:51.095Z,102449.38
2023-03-27T17:42:18.149Z,102453.97
2023-03-27T17:44:45.714Z,102459.53
2023-03-27T17:47:13.453Z,102458.47
2023-03-27T17:49:41.245Z,102469.19
2023-03-27T17:52:11.246Z,102468.88
2023-03-27T17:54:38.890Z,102469.84
2023-03-27T17:57:06.532Z,102476.06
2023-03-27T17:59:34.185Z,102477.63
2023-03-27T18:02:01.445Z,102488.47
2023-03-27T18:04:29.145Z,102481.03
2023-03-27T18:06:56.171Z,102483.03
2023-03-27T18:09:23.259Z,102490.88
2023-03-27T18:11:50.776Z,102495.69
2023-03-27T18:14:17.804Z,102496.69
2023-03-27T18:16:45.024Z,102490.25
2023-03-27T18:19:12.372Z,102491.50
2023-03-27T18:21:39.297Z,102492.69
2023-03-27T18:24:06.703Z,102496.53
2023-03-27T18:26:33.836Z,102501.50
2023-03-27T18:29:01.037Z,102509.59
2023-03-27T18:31:28.075Z,102507.41
2023-03-27T18:33:55.186Z,102505.22
2023-03-27T18:36:22.293Z,102520.59
2023-03-27T18:38:50.209Z,102515.19
2023-03-27T18:41:17.592Z,102513.91
2023-03-27T18:43:44.551Z,102517.09
2023-03-27T18:46:16.648Z,102513.47
2023-03-27T18:48:48.605Z,102513.66
2023-03-27T18:51:18.603Z,102517.91
2023-03-27T18:53:46.101Z,102520.06
2023-03-27T18:56:14.051Z,102523.59
2023-03-27T18:58:41.180Z,102531.78
2023-03-27T19:01:11.615Z,102527.09
2023-03-27T19:03:40.607Z,102527.00
2023-03-27T19:06:09.945Z,102526.81
2023-03-27T19:08:37.992Z,102537.38
2023-03-27T19:11:10.051Z,102534.91
2023-03-27T19:13:37.044Z,102534.53
2023-03-27T19:16:14.962Z,102530.22
2023-03-27T19:18:42.668Z,102544.00
2023-03-27T19:21:09.669Z,102531.47
2023-03-27T19:23:36.769Z,102540.22
2023-03-27T19:29:07.679Z,102536.88
2023-03-27T19:31:35.369Z,102530.84
2023-03-27T19:34:03.082Z,102535.88
2023-03-27T19:36:31.754Z,102535.16
2023-03-27T19:38:58.998Z,102537.00
2023-03-27T19:41:27.028Z,102544.47
2023-03-27T19:43:54.022Z,102539.78
2023-03-27T19:46:23.216Z,102536.78
2023-03-27T19:48:51.349Z,102541.56
2023-03-27T19:51:18.462Z,102537.59
2023-03-27T19:53:45.711Z,102545.34
2023-03-27T19:56:12.759Z,102538.81
2023-03-27T19:58:39.752Z,102539.50
2023-03-27T20:01:07.168Z,102543.84
2023-03-27T20:03:35.169Z,102542.66
2023-03-27T20:06:07.835Z,102547.69
2023-03-27T20:08:38.236Z,102547.69
2023-03-27T20:11:06.923Z,102552.53
2023-03-27T20:13:42.382Z,102551.19
2023-03-27T20:16:16.613Z,102553.94
2023-03-27T20:18:43.808Z,102555.47
2023-03-27T20:21:13.737Z,102553.13
2023-03-27T20:23:43.212Z,102550.84
2023-03-27T20:26:10.410Z,102548.94
2023-03-27T20:28:38.425Z,102556.59
2023-03-27T20:31:06.462Z,102560.56
2023-03-27T20:33:33.488Z,102561.06
2023-03-27T20:36:00.790Z,102553.97
2023-03-27T20:38:31.480Z,102559.78
2023-03-27T20:41:03.540Z,102567.22
2023-03-27T20:43:34.838Z,102562.28
2023-03-27T20:46:04.533Z,102570.00
2023-03-27T20:48:41.743Z,102573.59
2023-03-27T20:51:14.791Z,102567.38
2023-03-27T20:53:54.108Z,102574.75
2023-03-27T20:56:22.462Z,102588.91
2023-03-27T20:58:50.278Z,102579.22
2023-03-27T21:01:19.462Z,102588.06
2023-03-27T21:03:49.779Z,102587.75
2023-03-27T21:06:20.588Z,102581.72
2023-03-27T21:08:48.096Z,102582.91
2023-03-27T21:11:15.191Z,102591.59
2023-03-27T21:13:42.310Z,102583.56
2023-03-27T21:16:09.668Z,102592.88
2023-03-27T21:18:36.734Z,102586.22
2023-03-27T21:21:04.787Z,102586.03
2023-03-27T21:23:32.030Z,102581.31
2023-03-27T21:25:59.269Z,102580.16
2023-03-27T21:28:26.630Z,102579.03
2023-03-27T21:30:53.695Z,102584.84
2023-03-27T21:33:20.623Z,102579.00
2023-03-27T21:35:48.674Z,102586.44
2023-03-27T21:38:17.874Z,102590.16
2023-03-27T21:40:47.445Z,102590.03
2023-03-27T21:43:14.872Z,102594.44
2023-03-27T21:45:42.116Z,102585.31
2023-03-27T21:48:10.705Z,102591.09
2023-03-27T21:50:37.882Z,102594.09
2023-03-27T21:53:04.876Z,102587.97
2023-03-27T21:55:31.937Z,102587.41
2023-03-27T21:57:58.979Z,102596.47
2023-03-27T22:00:26.479Z,102596.16
2023-03-27T22:02:53.626Z,102595.94
2023-03-27T22:05:20.733Z,102605.34
2023-03-27T22:07:47.733Z,102609.75
2023-03-27T22:10:14.872Z,102609.50
2023-03-27T22:12:42.302Z,102610.19
2023-03-27T22:15:10.732Z,102611.75
2023-03-27T22:17:38.297Z,102603.06
2023-03-27T22:20:07.046Z,102605.22
2023-03-27T22:22:35.579Z,102605.13
2023-03-27T22:25:02.999Z,102605.47
2023-03-27T22:27:31.068Z,102597.09
2023-03-27T22:29:58.362Z,102605.13
2023-03-27T22:32:25.662Z,102613.84
2023-03-27T22:34:53.119Z,102610.44
2023-03-27T22:37:20.828Z,102608.84
2023-03-27T22:39:47.993Z,102617.34
2023-03-27T22:42:15.068Z,102614.72
2023-03-27T22:44:42.185Z,102619.25
2023-03-27T22:47:09.592Z,102625.34
2023-03-27T22:49:36.911Z,102617.34
2023-03-27T22:52:04.832Z,102625.03
2023-03-27T22:54:31.964Z,102621.41
2023-03-27T22:56:59.273Z,102622.19
2023-03-27T22:59:26.409Z,102620.72
2023-03-27T23:01:54.269Z,102624.69
2023-03-27T23:04:21.443Z,102624.69
2023-03-27T23:06:48.739Z,102619.00
2023-03-27T23:09:15.833Z,102620.38
2023-03-27T23:11:43.871Z,102616.28
2023-03-27T23:14:11.288Z,102623.97
2023-03-27T23:16:38.369Z,102609.75
2023-03-27T23:19:06.000Z,102612.34
2023-03-27T23:21:32.954Z,102615.72
2023-03-27T23:23:59.967Z,102619.25
2023-03-27T23:26:27.597Z,102611.44
2023-03-27T23:28:54.698Z,102614.59
2023-03-27T23:31:21.828Z,102618.31
2023-03-27T23:33:51.187Z,102620.69
2023-03-27T23:36:24.553Z,102622.63
2023-03-27T23:38:53.297Z,102622.63
2023-03-27T23:41:21.122Z,102618.28
2023-03-27T23:43:49.042Z,102623.94
2023-03-27T23:46:16.612Z,102625.28
2023-03-27T23:48:44.848Z,102635.09
2023-03-27T23:51:14.301Z,102630.19
2023-03-27T23:53:42.107Z,102641.22
2023-03-27T23:56:10.005Z,102641.00
2023-03-27T23:58:37.783Z,102641.13
